sensor_id;sensor_type;location;lat;lon;timestamp;pressure;altitude;pressure_sealevel;temperature;humidity
31011;BME280;26395;53.412;19.598;2022-07-23T00:04:19;100446.48;;;23.48;97.67
31011;BME280;26395;53.412;19.598;2022-07-23T00:19:23;100455.80;;;23.68;96.49
31011;BME280;26395;53.412;19.598;2022-07-23T00:34:26;100453.31;;;24.16;92.75
31011;BME280;26395;53.412;19.598;2022-07-23T00:49:30;100455.69;;;23.91;93.35
31011;BME280;26395;53.412;19.598;2022-07-23T01:04:33;100456.79;;;23.75;93.71
31011;BME280;26395;53.412;19.598;2022-07-23T01:19:37;100458.85;;;22.65;99.04
31011;BME280;26395;53.412;19.598;2022-07-23T01:34:41;100458.77;;;22.39;99.95
31011;BME280;26395;53.412;19.598;2022-07-23T01:49:44;100456.69;;;22.46;99.80
31011;BME280;26395;53.412;19.598;2022-07-23T02:05:13;100455.45;;;22.97;97.89
31011;BME280;26395;53.412;19.598;2022-07-23T02:20:17;100455.05;;;21.78;100.00
31011;BME280;26395;53.412;19.598;2022-07-23T02:35:20;100441.77;;;21.52;100.00
31011;BME280;26395;53.412;19.598;2022-07-23T02:50:24;100436.89;;;21.40;100.00
31011;BME280;26395;53.412;19.598;2022-07-23T03:05:29;100438.70;;;21.46;100.00
31011;BME280;26395;53.412;19.598;2022-07-23T03:20:34;100435.59;;;21.65;100.00
31011;BME280;26395;53.412;19.598;2022-07-23T03:35:38;100428.19;;;21.75;100.00
31011;BME280;26395;53.412;19.598;2022-07-23T03:50:57;100428.73;;;21.87;100.00
31011;BME280;26395;53.412;19.598;2022-07-23T04:06:01;100438.63;;;22.20;100.00
31011;BME280;26395;53.412;19.598;2022-07-23T04:21:05;100438.80;;;22.37;100.00
31011;BME280;26395;53.412;19.598;2022-07-23T04:36:08;100450.25;;;22.56;100.00
31011;BME280;26395;53.412;19.598;2022-07-23T04:51:12;100445.98;;;22.76;100.00
31011;BME280;26395;53.412;19.598;2022-07-23T05:06:15;100423.77;;;22.96;100.00
31011;BME280;26395;53.412;19.598;2022-07-23T05:21:19;100404.40;;;23.25;100.00
31011;BME280;26395;53.412;19.598;2022-07-23T05:36:23;100400.66;;;23.57;100.00
31011;BME280;26395;53.412;19.598;2022-07-23T05:51:32;100414.49;;;23.41;100.00
31011;BME280;26395;53.412;19.598;2022-07-23T06:06:35;100415.31;;;23.29;100.00
31011;BME280;26395;53.412;19.598;2022-07-23T06:21:41;100400.92;;;23.74;100.00
31011;BME280;26395;53.412;19.598;2022-07-23T06:36:50;100414.53;;;24.09;100.00
31011;BME280;26395;53.412;19.598;2022-07-23T06:51:53;100416.84;;;23.99;100.00
31011;BME280;26395;53.412;19.598;2022-07-23T07:06:57;100411.00;;;24.42;100.00
31011;BME280;26395;53.412;19.598;2022-07-23T07:22:00;100402.20;;;24.75;100.00
31011;BME280;26395;53.412;19.598;2022-07-23T07:37:06;100388.35;;;25.37;100.00
31011;BME280;26395;53.412;19.598;2022-07-23T07:52:10;100386.29;;;26.22;99.04
31011;BME280;26395;53.412;19.598;2022-07-23T08:07:14;100382.69;;;27.52;95.04
31011;BME280;26395;53.412;19.598;2022-07-23T08:22:18;100378.04;;;28.56;83.48
31011;BME280;26395;53.412;19.598;2022-07-23T08:37:21;100370.60;;;28.97;74.65
31011;BME280;26395;53.412;19.598;2022-07-23T08:52:25;100366.73;;;29.13;71.78
31011;BME280;26395;53.412;19.598;2022-07-23T09:07:29;100353.09;;;29.75;69.93
31011;BME280;26395;53.412;19.598;2022-07-23T09:22:33;100352.13;;;30.28;65.88
31011;BME280;26395;53.412;19.598;2022-07-23T09:37:37;100352.91;;;30.64;63.73
31011;BME280;26395;53.412;19.598;2022-07-23T09:52:45;100346.94;;;31.33;61.70
31011;BME280;26395;53.412;19.598;2022-07-23T10:07:51;100349.73;;;31.58;60.54
31011;BME280;26395;53.412;19.598;2022-07-23T10:23:30;100339.56;;;31.67;60.50
31011;BME280;26395;53.412;19.598;2022-07-23T10:38:43;100346.13;;;31.28;59.81
31011;BME280;26395;53.412;19.598;2022-07-23T11:24:29;100359.13;;;30.68;60.14
31011;BME280;26395;53.412;19.598;2022-07-23T11:39:33;100374.80;;;30.25;61.56
31011;BME280;26395;53.412;19.598;2022-07-23T11:54:50;100376.85;;;28.91;65.09
31011;BME280;26395;53.412;19.598;2022-07-23T12:09:55;100364.17;;;28.57;66.94
31011;BME280;26395;53.412;19.598;2022-07-23T12:25:02;100378.79;;;28.21;68.36
31011;BME280;26395;53.412;19.598;2022-07-23T12:40:32;100398.92;;;27.27;74.59
31011;BME280;26395;53.412;19.598;2022-07-23T12:56:08;100396.20;;;25.92;86.02
31011;BME280;26395;53.412;19.598;2022-07-23T13:11:21;100384.65;;;25.39;92.46
31011;BME280;26395;53.412;19.598;2022-07-23T13:26:25;100376.58;;;25.18;96.05
31011;BME280;26395;53.412;19.598;2022-07-23T13:41:28;100388.80;;;25.33;97.84
31011;BME280;26395;53.412;19.598;2022-07-23T13:56:32;100402.50;;;25.10;100.00
31011;BME280;26395;53.412;19.598;2022-07-23T14:11:36;100410.73;;;25.21;100.00
31011;BME280;26395;53.412;19.598;2022-07-23T14:26:40;100394.46;;;24.83;100.00
31011;BME280;26395;53.412;19.598;2022-07-23T14:41:44;100377.86;;;24.99;100.00
31011;BME280;26395;53.412;19.598;2022-07-23T14:56:49;100369.70;;;24.93;100.00
31011;BME280;26395;53.412;19.598;2022-07-23T15:11:53;100345.55;;;25.23;100.00
31011;BME280;26395;53.412;19.598;2022-07-23T15:26:57;100339.27;;;25.75;100.00
31011;BME280;26395;53.412;19.598;2022-07-23T15:42:01;100336.69;;;25.95;100.00
31011;BME280;26395;53.412;19.598;2022-07-23T15:57:05;100333.94;;;26.09;100.00
31011;BME280;26395;53.412;19.598;2022-07-23T16:12:09;100329.30;;;26.21;100.00
31011;BME280;26395;53.412;19.598;2022-07-23T16:27:12;100320.98;;;26.23;100.00
31011;BME280;26395;53.412;19.598;2022-07-23T16:42:16;100318.01;;;26.11;100.00
31011;BME280;26395;53.412;19.598;2022-07-23T16:57:19;100301.89;;;25.90;100.00
31011;BME280;26395;53.412;19.598;2022-07-23T17:12:22;100291.55;;;25.52;100.00
31011;BME280;26395;53.412;19.598;2022-07-23T17:27:26;100299.48;;;25.20;100.00
31011;BME280;26395;53.412;19.598;2022-07-23T17:42:32;100301.95;;;24.83;100.00
31011;BME280;26395;53.412;19.598;2022-07-23T17:57:36;100291.23;;;24.63;100.00
31011;BME280;26395;53.412;19.598;2022-07-23T18:12:39;100286.21;;;24.31;100.00
31011;BME280;26395;53.412;19.598;2022-07-23T18:27:43;100284.88;;;24.09;100.00
31011;BME280;26395;53.412;19.598;2022-07-23T18:42:50;100285.70;;;23.75;100.00
31011;BME280;26395;53.412;19.598;2022-07-23T18:57:55;100285.17;;;23.44;100.00
31011;BME280;26395;53.412;19.598;2022-07-23T19:13:05;100299.74;;;23.20;100.00
31011;BME280;26395;53.412;19.598;2022-07-23T19:28:09;100309.58;;;23.08;100.00
31011;BME280;26395;53.412;19.598;2022-07-23T19:43:13;100326.90;;;23.00;100.00
31011;BME280;26395;53.412;19.598;2022-07-23T19:58:17;100330.67;;;22.78;100.00
31011;BME280;26395;53.412;19.598;2022-07-23T20:13:20;100339.77;;;22.76;100.00
31011;BME280;26395;53.412;19.598;2022-07-23T20:28:24;100342.31;;;22.64;100.00
31011;BME280;26395;53.412;19.598;2022-07-23T20:43:28;100361.70;;;22.52;100.00
31011;BME280;26395;53.412;19.598;2022-07-23T20:58:31;100386.24;;;22.30;100.00
31011;BME280;26395;53.412;19.598;2022-07-23T21:13:34;100409.66;;;21.90;100.00
31011;BME280;26395;53.412;19.598;2022-07-23T21:28:38;100436.84;;;21.59;100.00
31011;BME280;26395;53.412;19.598;2022-07-23T21:43:41;100469.62;;;21.15;100.00
31011;BME280;26395;53.412;19.598;2022-07-23T21:58:45;100479.21;;;20.91;100.00
31011;BME280;26395;53.412;19.598;2022-07-23T22:13:48;100476.83;;;20.90;100.00
31011;BME280;26395;53.412;19.598;2022-07-23T22:28:52;100479.29;;;20.87;100.00
31011;BME280;26395;53.412;19.598;2022-07-23T22:43:55;100488.98;;;20.82;100.00
31011;BME280;26395;53.412;19.598;2022-07-23T22:58:58;100500.67;;;20.68;100.00
31011;BME280;26395;53.412;19.598;2022-07-23T23:14:22;100501.98;;;20.51;100.00
31011;BME280;26395;53.412;19.598;2022-07-23T23:29:27;100500.88;;;20.33;100.00
31011;BME280;26395;53.412;19.598;2022-07-23T23:44:30;100495.89;;;20.16;100.00
31011;BME280;26395;53.412;19.598;2022-07-23T23:59:33;100491.15;;;19.93;100.00
